Time;durP1;ratioP1;P1;durP2;ratioP2;P2;SDS_P1;SDS_P2;PMS_P1;PMS_P2;Temp;Humidity;BMP_temperature;BMP_pressure;BME280_temperature;BME280_humidity;BME280_pressure;Samples;Min_cycle;Max_cycle;Signal;HPM_P1;HPM_P2
2023/04/28 00:01:29;;;;;;;2.45;1.63;;;14.90;99.90;;;;;;5035164;28;20198;-64
2023/04/28 00:03:56;;;;;;;4.32;1.92;;;14.90;99.90;;;;;;5028554;28;20193;-66
2023/04/28 00:06:24;;;;;;;2.42;1.60;;;14.90;99.90;;;;;;5032728;28;20186;-64
2023/04/28 00:08:50;;;;;;;2.47;1.77;;;14.90;99.90;;;;;;5031924;28;20205;-68
2023/04/28 00:11:15;;;;;;;2.45;1.77;;;14.90;99.90;;;;;;5035490;28;20178;-68
2023/04/28 00:13:43;;;;;;;2.72;1.77;;;14.90;99.90;;;;;;5036044;28;20212;-65
2023/04/28 00:16:14;;;;;;;2.13;1.63;;;14.90;99.90;;;;;;5021580;28;20183;-67
2023/04/28 00:18:42;;;;;;;2.10;1.90;;;14.90;99.90;;;;;;5033307;28;20327;-67
2023/04/28 00:21:08;;;;;;;2.33;1.83;;;14.90;99.90;;;;;;5035883;28;20213;-64
2023/04/28 00:23:34;;;;;;;3.17;1.80;;;14.90;99.90;;;;;;5034419;28;20194;-66
2023/04/28 00:26:00;;;;;;;3.03;1.90;;;14.90;99.90;;;;;;5035194;28;20203;-67
2023/04/28 00:28:25;;;;;;;2.25;1.60;;;14.80;99.90;;;;;;5034764;28;20181;-67
2023/04/28 00:30:51;;;;;;;4.00;2.35;;;14.90;99.90;;;;;;5035036;28;20312;-67
2023/04/28 00:33:16;;;;;;;3.10;1.70;;;14.80;99.90;;;;;;5034647;28;20264;-67
2023/04/28 00:35:46;;;;;;;3.50;1.83;;;14.90;99.90;;;;;;5042949;28;20178;-67
2023/04/28 00:38:12;;;;;;;3.15;1.90;;;14.80;99.90;;;;;;5026943;28;20174;-67
2023/04/28 00:40:38;;;;;;;3.65;1.88;;;14.80;99.90;;;;;;5035224;28;20178;-66
2023/04/28 00:43:04;;;;;;;2.85;1.90;;;14.80;99.90;;;;;;5035266;28;20504;-67
2023/04/28 00:45:33;;;;;;;3.28;1.73;;;14.80;99.90;;;;;;5033523;28;20197;-67
2023/04/28 00:47:59;;;;;;;3.53;1.75;;;14.80;99.90;;;;;;5035137;28;20235;-67
2023/04/28 00:50:25;;;;;;;2.67;1.65;;;14.80;99.90;;;;;;5032530;28;20182;-67
2023/04/28 00:52:53;;;;;;;3.35;1.90;;;14.80;99.90;;;;;;5032666;28;20205;-67
2023/04/28 00:55:23;;;;;;;2.15;1.70;;;14.80;99.90;;;;;;5028061;28;20209;-62
2023/04/28 00:57:51;;;;;;;2.03;1.70;;;14.80;99.90;;;;;;5021652;28;20171;-67
2023/04/28 01:00:19;;;;;;;4.60;2.15;;;14.90;99.90;;;;;;5034418;28;20202;-69
2023/04/28 01:02:45;;;;;;;2.80;1.90;;;14.80;99.90;;;;;;5032312;28;20185;-66
2023/04/28 01:05:14;;;;;;;3.17;1.70;;;14.80;99.90;;;;;;5034700;28;20178;-66
2023/04/28 01:07:42;;;;;;;3.80;1.70;;;14.80;99.90;;;;;;5034060;28;20178;-67
2023/04/28 01:10:08;;;;;;;3.42;2.10;;;14.80;99.90;;;;;;5027695;28;20170;-67
2023/04/28 01:12:34;;;;;;;2.88;1.67;;;14.80;99.90;;;;;;5031455;28;20175;-66
2023/04/28 01:15:03;;;;;;;2.47;1.75;;;14.80;99.90;;;;;;5029972;28;20205;-68
2023/04/28 01:17:28;;;;;;;2.85;2.00;;;14.70;99.90;;;;;;5039101;28;20170;-68
2023/04/28 01:19:56;;;;;;;2.72;1.77;;;14.80;99.90;;;;;;5031759;28;20205;-67
2023/04/28 01:22:22;;;;;;;2.88;1.67;;;14.70;99.90;;;;;;5033910;28;20280;-67
2023/04/28 01:24:47;;;;;;;3.22;2.00;;;14.70;99.90;;;;;;5032232;28;20277;-66
2023/04/28 01:27:17;;;;;;;3.92;2.30;;;14.70;99.90;;;;;;5031501;28;20190;-67
2023/04/28 01:29:43;;;;;;;2.92;2.05;;;14.70;99.90;;;;;;5032392;28;20174;-67
2023/04/28 01:32:09;;;;;;;2.70;2.00;;;14.70;99.90;;;;;;5033115;28;20213;-66
2023/04/28 01:34:34;;;;;;;2.95;1.85;;;14.70;99.90;;;;;;5034554;28;20206;-67
2023/04/28 01:37:02;;;;;;;3.72;2.00;;;14.60;99.90;;;;;;5033556;28;20186;-67
2023/04/28 01:39:28;;;;;;;3.08;2.05;;;14.60;99.90;;;;;;5031225;28;20194;-66
2023/04/28 01:41:53;;;;;;;4.07;2.00;;;14.60;99.90;;;;;;5051007;28;20173;-67
2023/04/28 01:44:21;;;;;;;2.50;1.90;;;14.60;99.90;;;;;;5034145;28;20209;-67
2023/04/28 01:46:47;;;;;;;3.78;1.85;;;14.50;99.90;;;;;;5033744;28;20285;-66
2023/04/28 01:49:15;;;;;;;3.63;1.98;;;14.50;99.90;;;;;;5025217;28;20261;-67
2023/04/28 01:51:57;;;;;;;6.10;2.30;;;14.50;99.90;;;;;;5020260;28;20197;-67
2023/04/28 01:54:29;;;;;;;2.85;1.70;;;14.40;99.90;;;;;;5034249;28;20201;-69
2023/04/28 01:56:57;;;;;;;2.55;2.00;;;14.40;99.90;;;;;;5034351;28;20170;-68
2023/04/28 01:59:22;;;;;;;3.78;1.90;;;14.30;99.90;;;;;;5029909;28;20194;-68
2023/04/28 02:01:48;;;;;;;3.30;2.00;;;14.30;99.90;;;;;;5031802;28;20176;-66
2023/04/28 02:04:16;;;;;;;3.33;2.03;;;14.30;99.90;;;;;;5033801;28;20216;-66
2023/04/28 02:06:44;;;;;;;2.90;1.95;;;14.20;99.90;;;;;;5038024;28;20166;-66
2023/04/28 02:09:10;;;;;;;2.95;2.00;;;14.20;99.90;;;;;;5030837;28;20179;-66
2023/04/28 02:11:36;;;;;;;3.08;1.95;;;14.20;99.90;;;;;;5033586;28;20208;-67
2023/04/28 02:14:03;;;;;;;2.55;1.90;;;14.20;99.90;;;;;;5041979;28;20174;-67
2023/04/28 02:16:29;;;;;;;2.25;1.80;;;14.20;99.90;;;;;;5051441;28;20197;-66
2023/04/28 02:18:57;;;;;;;3.88;1.95;;;14.20;99.90;;;;;;5039132;28;20209;-67
2023/04/28 02:21:27;;;;;;;3.05;1.90;;;14.20;99.90;;;;;;5037380;28;20173;-66
2023/04/28 02:23:55;;;;;;;3.45;2.03;;;14.10;99.90;;;;;;5035863;28;20193;-66
2023/04/28 02:26:25;;;;;;;3.28;2.10;;;14.10;99.90;;;;;;5031218;28;20170;-66
2023/04/28 02:28:51;;;;;;;3.28;2.08;;;14.10;99.90;;;;;;5029800;28;20212;-66
2023/04/28 02:31:19;;;;;;;2.85;1.90;;;14.10;99.90;;;;;;5032720;28;20193;-64
2023/04/28 02:33:47;;;;;;;3.85;2.08;;;14.10;99.90;;;;;;5043097;28;20190;-67
2023/04/28 02:36:15;;;;;;;2.25;1.80;;;14.00;99.90;;;;;;5036945;28;20412;-65
2023/04/28 02:38:48;;;;;;;2.40;2.03;;;14.00;99.90;;;;;;5034570;28;20190;-66
2023/04/28 02:41:14;;;;;;;3.65;2.25;;;14.00;99.90;;;;;;5038965;28;20181;-67
2023/04/28 02:43:42;;;;;;;2.42;2.10;;;14.00;99.90;;;;;;5036929;28;20202;-66
2023/04/28 02:46:08;;;;;;;3.90;2.08;;;14.00;99.90;;;;;;5037884;28;20182;-67
2023/04/28 02:48:34;;;;;;;3.63;2.47;;;13.90;99.90;;;;;;5034047;28;20185;-66
2023/04/28 02:51:03;;;;;;;3.10;2.20;;;13.90;99.90;;;;;;5037940;28;20182;-66
2023/04/28 02:53:28;;;;;;;2.72;2.08;;;13.90;99.90;;;;;;5032550;28;20229;-66
2023/04/28 02:55:54;;;;;;;2.42;1.98;;;13.90;99.90;;;;;;5035412;28;20209;-64
2023/04/28 02:58:20;;;;;;;2.15;1.75;;;13.80;99.90;;;;;;5036271;28;20307;-65
2023/04/28 03:00:46;;;;;;;2.22;2.00;;;13.80;99.90;;;;;;5037751;28;20236;-66
2023/04/28 03:03:12;;;;;;;3.22;2.28;;;13.80;99.90;;;;;;5033052;28;20198;-67
2023/04/28 03:05:38;;;;;;;2.70;2.10;;;13.80;99.90;;;;;;5035212;28;20209;-66
2023/04/28 03:08:04;;;;;;;3.70;2.47;;;13.80;99.90;;;;;;5036559;28;20170;-66
2023/04/28 03:10:30;;;;;;;4.18;2.45;;;13.80;99.90;;;;;;5037163;28;20174;-68
2023/04/28 03:12:55;;;;;;;4.63;2.95;;;13.70;99.90;;;;;;5035284;28;20194;-66
2023/04/28 03:15:23;;;;;;;3.08;2.40;;;13.70;99.90;;;;;;5034823;28;20173;-62
2023/04/28 03:17:49;;;;;;;2.97;2.03;;;13.70;99.90;;;;;;5033911;28;20182;-68
2023/04/28 03:20:14;;;;;;;2.53;2.33;;;13.60;99.90;;;;;;5034393;28;20227;-66
2023/04/28 03:22:42;;;;;;;2.55;2.17;;;13.60;99.90;;;;;;5040985;28;20178;-64
2023/04/28 03:25:08;;;;;;;4.30;2.15;;;13.60;99.90;;;;;;5032382;28;20290;-66
2023/04/28 03:27:34;;;;;;;3.15;2.17;;;13.60;99.90;;;;;;5031789;28;20232;-66
2023/04/28 03:29:59;;;;;;;2.75;2.38;;;13.60;99.90;;;;;;5033189;28;20171;-66
2023/04/28 03:32:25;;;;;;;8.95;5.50;;;13.60;99.90;;;;;;5033620;28;20389;-66
2023/04/28 03:34:53;;;;;;;5.60;4.25;;;13.50;99.90;;;;;;5036717;28;20242;-66
2023/04/28 03:37:23;;;;;;;4.47;3.45;;;13.50;99.90;;;;;;5032362;28;20174;-66
2023/04/28 03:39:49;;;;;;;5.85;3.55;;;13.50;99.90;;;;;;5034816;28;20239;-65
2023/04/28 03:42:15;;;;;;;3.78;3.22;;;13.60;99.90;;;;;;5037325;28;20268;-66
2023/04/28 03:44:43;;;;;;;6.88;4.60;;;13.50;99.90;;;;;;5035373;28;20194;-66
2023/04/28 03:47:08;;;;;;;6.38;4.70;;;13.50;99.90;;;;;;5033299;28;20261;-67
2023/04/28 03:49:39;;;;;;;6.75;4.72;;;13.50;99.90;;;;;;5017412;28;20209;-67
2023/04/28 03:52:04;;;;;;;4.78;4.00;;;13.40;99.90;;;;;;5036417;28;20217;-67
2023/04/28 03:54:30;;;;;;;5.60;3.40;;;13.40;99.90;;;;;;5037515;28;20288;-64
2023/04/28 03:56:56;;;;;;;5.05;3.38;;;13.40;99.90;;;;;;5033633;28;20210;-67
2023/04/28 03:59:25;;;;;;;3.70;2.70;;;13.40;99.90;;;;;;5035929;28;20204;-66
2023/04/28 04:01:53;;;;;;;3.05;2.70;;;13.40;99.90;;;;;;5036923;28;20202;-66
2023/04/28 04:04:21;;;;;;;4.10;2.63;;;13.40;99.90;;;;;;5029243;28;20202;-66
2023/04/28 04:06:49;;;;;;;4.05;2.60;;;13.30;99.90;;;;;;5035203;28;20173;-66
2023/04/28 04:09:17;;;;;;;4.50;3.10;;;13.20;99.90;;;;;;5047249;28;20221;-67
2023/04/28 04:11:45;;;;;;;4.32;2.75;;;13.20;99.90;;;;;;5032001;28;20345;-67
2023/04/28 04:14:13;;;;;;;3.78;2.95;;;13.20;99.90;;;;;;5034805;28;20178;-66
2023/04/28 04:16:39;;;;;;;3.33;3.03;;;13.10;99.90;;;;;;5036735;28;20190;-66
2023/04/28 04:19:06;;;;;;;3.67;3.00;;;13.10;99.90;;;;;;5024377;28;20178;-66
2023/04/28 04:21:34;;;;;;;4.35;2.95;;;13.00;99.90;;;;;;5031095;28;20182;-65
2023/04/28 04:24:02;;;;;;;4.22;3.15;;;13.00;99.90;;;;;;5035870;28;20205;-66
2023/04/28 04:26:30;;;;;;;4.57;2.92;;;13.00;99.90;;;;;;5035082;28;20190;-66
2023/04/28 04:28:56;;;;;;;3.72;3.15;;;12.90;99.90;;;;;;5032545;28;21521;-66
2023/04/28 04:31:21;;;;;;;4.00;2.75;;;12.90;99.90;;;;;;5032374;28;20187;-66
2023/04/28 04:33:50;;;;;;;3.55;2.90;;;12.90;99.90;;;;;;5033195;28;20471;-67
2023/04/28 04:36:16;;;;;;;3.72;2.75;;;12.90;99.90;;;;;;5034423;28;20182;-65
2023/04/28 04:38:46;;;;;;;3.97;2.78;;;12.90;99.90;;;;;;5030586;28;20314;-64
2023/04/28 04:41:14;;;;;;;3.75;3.08;;;12.90;99.90;;;;;;5034146;28;20205;-66
2023/04/28 04:43:40;;;;;;;3.90;2.90;;;13.00;99.90;;;;;;5033529;28;20214;-62
2023/04/28 04:46:08;;;;;;;3.88;2.85;;;13.00;99.90;;;;;;5028239;28;20178;-67
2023/04/28 04:48:33;;;;;;;3.83;3.00;;;13.00;99.90;;;;;;5033017;28;20178;-64
2023/04/28 04:50:59;;;;;;;3.65;2.88;;;13.00;99.90;;;;;;5030464;28;20209;-66
2023/04/28 04:53:27;;;;;;;3.90;2.80;;;13.00;99.90;;;;;;5031478;28;20698;-65
2023/04/28 04:55:55;;;;;;;2.95;2.65;;;13.00;99.90;;;;;;5028654;28;20265;-66
2023/04/28 04:58:21;;;;;;;3.58;2.78;;;13.00;99.90;;;;;;5031854;28;20232;-66
2023/04/28 05:00:48;;;;;;;3.58;2.83;;;13.10;99.90;;;;;;5027630;28;20175;-66
2023/04/28 05:03:15;;;;;;;6.10;3.13;;;13.10;99.90;;;;;;5032313;28;20198;-66
2023/04/28 05:05:40;;;;;;;3.20;2.80;;;13.10;99.90;;;;;;5020334;28;20199;-65
2023/04/28 05:08:08;;;;;;;3.30;2.70;;;13.10;99.90;;;;;;5033210;28;20181;-66
2023/04/28 05:10:37;;;;;;;3.85;2.92;;;13.10;99.90;;;;;;5031276;28;20268;-66
2023/04/28 05:13:05;;;;;;;3.53;2.63;;;13.10;99.90;;;;;;5034176;28;20204;-67
2023/04/28 05:15:36;;;;;;;2.97;2.50;;;13.20;99.90;;;;;;5031529;28;20188;-61
2023/04/28 05:18:08;;;;;;;3.20;2.72;;;13.20;99.90;;;;;;5026618;28;20167;-65
2023/04/28 05:20:36;;;;;;;4.00;2.83;;;13.20;99.90;;;;;;5031257;28;20244;-63
2023/04/28 05:23:02;;;;;;;4.38;3.75;;;13.20;99.90;;;;;;5033259;28;20178;-65
2023/04/28 05:25:31;;;;;;;7.38;3.47;;;13.20;99.90;;;;;;5033104;28;20308;-64
2023/04/28 05:28:03;;;;;;;5.30;3.08;;;13.20;99.90;;;;;;5032858;28;20198;-66
2023/04/28 05:30:29;;;;;;;3.95;3.28;;;13.20;99.90;;;;;;5033667;28;20188;-67
2023/04/28 05:32:55;;;;;;;7.10;3.10;;;13.10;99.90;;;;;;5032962;28;20167;-66
2023/04/28 05:35:23;;;;;;;6.55;3.60;;;13.10;99.90;;;;;;5026534;28;20187;-65
2023/04/28 05:37:49;;;;;;;8.57;3.50;;;13.10;99.90;;;;;;5029374;28;20247;-66
2023/04/28 05:40:17;;;;;;;5.90;3.65;;;13.00;99.90;;;;;;5032116;28;20198;-63
2023/04/28 05:42:43;;;;;;;7.90;3.17;;;12.90;99.90;;;;;;5033544;28;20197;-67
2023/04/28 05:45:09;;;;;;;4.15;3.05;;;12.80;99.90;;;;;;5030501;28;20342;-68
2023/04/28 05:47:37;;;;;;;5.07;3.40;;;12.80;99.90;;;;;;5016645;28;20209;-66
2023/04/28 05:50:03;;;;;;;4.43;3.10;;;12.80;99.90;;;;;;5014032;28;20167;-67
2023/04/28 05:52:31;;;;;;;3.42;2.90;;;12.70;99.90;;;;;;5027602;28;20221;-67
2023/04/28 05:54:57;;;;;;;4.90;3.60;;;12.70;99.90;;;;;;5034168;28;20444;-67
2023/04/28 05:57:24;;;;;;;5.47;3.92;;;12.70;99.90;;;;;;5033800;28;20201;-68
2023/04/28 05:59:50;;;;;;;7.55;3.97;;;12.70;99.90;;;;;;5022302;28;20177;-67
2023/04/28 06:02:16;;;;;;;4.63;3.55;;;12.70;99.90;;;;;;5034061;28;20193;-67
2023/04/28 06:04:43;;;;;;;4.97;3.80;;;12.70;99.90;;;;;;5032984;28;20197;-68
2023/04/28 06:07:11;;;;;;;5.35;3.78;;;12.70;99.90;;;;;;5032791;28;20182;-68
2023/04/28 06:09:39;;;;;;;5.78;3.67;;;12.70;99.90;;;;;;5036628;28;20232;-68
2023/04/28 06:12:05;;;;;;;4.90;3.78;;;12.70;99.90;;;;;;5032180;28;20247;-68
2023/04/28 06:14:34;;;;;;;5.05;3.80;;;12.70;99.90;;;;;;5027912;28;20202;-67
2023/04/28 06:17:00;;;;;;;4.03;3.33;;;12.80;99.90;;;;;;5026464;28;20181;-67
2023/04/28 06:19:26;;;;;;;6.22;3.85;;;12.80;99.90;;;;;;5032380;28;20219;-67
2023/04/28 06:21:56;;;;;;;4.65;3.55;;;12.80;99.90;;;;;;5030354;28;20171;-67
2023/04/28 06:24:22;;;;;;;4.68;3.97;;;12.80;99.90;;;;;;5016572;28;20206;-65
2023/04/28 06:26:47;;;;;;;5.82;4.28;;;12.80;99.90;;;;;;5021514;28;20170;-67
2023/04/28 06:29:13;;;;;;;4.47;3.50;;;12.90;99.90;;;;;;5025527;28;20451;-67
2023/04/28 06:31:39;;;;;;;6.10;3.70;;;12.90;99.90;;;;;;5038057;28;20209;-68
2023/04/28 06:34:07;;;;;;;5.35;3.95;;;13.00;99.90;;;;;;5029442;28;20198;-67
2023/04/28 06:36:35;;;;;;;4.30;3.63;;;13.10;99.90;;;;;;5025789;28;20198;-68
2023/04/28 06:39:03;;;;;;;4.30;3.88;;;13.10;99.90;;;;;;5033235;28;20186;-68
2023/04/28 06:41:29;;;;;;;6.10;3.67;;;13.20;99.90;;;;;;5033029;28;20174;-67
2023/04/28 06:43:54;;;;;;;4.93;3.88;;;13.30;99.90;;;;;;5032794;28;20194;-68
2023/04/28 06:46:23;;;;;;;5.32;4.13;;;13.40;99.90;;;;;;5026489;28;20184;-68
2023/04/28 06:48:48;;;;;;;4.70;3.60;;;13.40;99.90;;;;;;5019492;28;20205;-67
2023/04/28 06:51:14;;;;;;;8.02;4.13;;;13.50;99.90;;;;;;5033500;28;20198;-65
2023/04/28 06:53:42;;;;;;;4.28;3.88;;;13.50;99.90;;;;;;5031704;28;20289;-64
2023/04/28 06:56:10;;;;;;;4.97;3.75;;;13.60;99.90;;;;;;5021367;28;20233;-65
2023/04/28 06:58:41;;;;;;;4.50;3.20;;;13.70;99.90;;;;;;5029286;28;20170;-65
2023/04/28 07:01:06;;;;;;;3.63;3.17;;;13.70;99.90;;;;;;5033034;28;20224;-65
2023/04/28 07:03:32;;;;;;;4.50;3.50;;;13.80;99.90;;;;;;5033409;28;20201;-64
2023/04/28 07:06:00;;;;;;;4.25;3.80;;;13.90;99.90;;;;;;5036360;28;20202;-65
2023/04/28 07:08:25;;;;;;;4.18;3.50;;;13.90;99.90;;;;;;5033919;28;20179;-65
2023/04/28 07:10:51;;;;;;;3.60;3.28;;;13.90;99.90;;;;;;5036906;28;20178;-68
2023/04/28 07:13:21;;;;;;;4.15;3.50;;;14.00;99.90;;;;;;5036657;28;20202;-68
2023/04/28 07:15:47;;;;;;;4.88;3.25;;;14.00;99.90;;;;;;5054689;28;20181;-68
2023/04/28 07:18:12;;;;;;;3.95;3.28;;;14.10;99.90;;;;;;5035655;28;20187;-68
2023/04/28 07:20:40;;;;;;;3.72;3.33;;;14.20;99.90;;;;;;5034693;28;20190;-67
2023/04/28 07:23:06;;;;;;;3.88;3.47;;;14.30;99.90;;;;;;5017333;28;20190;-68
2023/04/28 07:25:35;;;;;;;3.70;3.28;;;14.50;99.90;;;;;;5022103;28;20208;-66
2023/04/28 07:28:02;;;;;;;4.22;3.53;;;14.60;99.90;;;;;;5032178;28;20171;-68
2023/04/28 07:30:30;;;;;;;5.30;3.67;;;14.70;99.90;;;;;;5037047;28;20189;-68
2023/04/28 07:32:57;;;;;;;4.90;3.50;;;14.90;99.90;;;;;;5036160;28;20197;-67
2023/04/28 07:35:23;;;;;;;4.20;3.50;;;15.00;99.90;;;;;;5035577;28;20186;-66
2023/04/28 07:37:48;;;;;;;4.45;3.47;;;15.20;99.90;;;;;;5029269;28;20188;-67
2023/04/28 07:40:17;;;;;;;6.97;3.70;;;15.20;99.90;;;;;;5036567;28;20261;-67
2023/04/28 07:42:44;;;;;;;3.38;3.08;;;15.30;99.90;;;;;;5036748;28;20281;-67
2023/04/28 07:45:10;;;;;;;4.53;3.60;;;15.40;99.90;;;;;;5034423;28;20233;-67
2023/04/28 07:47:36;;;;;;;5.05;3.03;;;15.40;99.90;;;;;;5039094;28;20174;-65
2023/04/28 07:50:05;;;;;;;4.57;3.15;;;15.50;99.90;;;;;;5044534;28;20169;-66
2023/04/28 07:52:32;;;;;;;3.33;3.03;;;15.50;99.90;;;;;;5045110;28;20214;-65
2023/04/28 07:55:01;;;;;;;4.13;3.60;;;15.60;99.90;;;;;;5043711;28;20189;-68
2023/04/28 07:57:28;;;;;;;3.58;3.22;;;15.60;99.90;;;;;;5046937;28;20174;-68
2023/04/28 07:59:53;;;;;;;5.30;3.72;;;15.60;99.90;;;;;;5039219;28;20174;-67
2023/04/28 08:02:19;;;;;;;4.25;3.35;;;15.60;99.90;;;;;;5036831;28;20181;-66
2023/04/28 08:04:47;;;;;;;4.97;4.00;;;15.60;99.90;;;;;;5032554;28;20264;-67
2023/04/28 08:07:14;;;;;;;3.67;3.22;;;15.60;99.90;;;;;;5017035;28;20171;-67
2023/04/28 08:09:42;;;;;;;4.28;3.20;;;15.60;99.90;;;;;;5019235;28;20178;-67
2023/04/28 08:12:08;;;;;;;4.85;3.83;;;15.60;99.90;;;;;;5029300;28;20209;-67
2023/04/28 08:14:36;;;;;;;4.97;3.75;;;15.70;99.90;;;;;;5034712;28;20178;-65
2023/04/28 08:17:01;;;;;;;5.05;3.28;;;15.70;99.90;;;;;;5033278;28;20166;-64
2023/04/28 08:19:27;;;;;;;4.45;3.70;;;15.80;99.90;;;;;;5035823;28;20269;-66
2023/04/28 08:21:58;;;;;;;5.07;3.63;;;15.80;99.90;;;;;;5031875;28;20167;-64
2023/04/28 08:24:24;;;;;;;5.65;3.47;;;15.90;99.90;;;;;;5024644;28;20206;-65
2023/04/28 08:26:50;;;;;;;4.93;3.60;;;16.00;99.90;;;;;;5036247;28;20178;-65
2023/04/28 08:29:18;;;;;;;4.07;3.67;;;16.20;99.90;;;;;;5035959;28;20414;-64
2023/04/28 08:31:46;;;;;;;5.28;3.33;;;16.30;99.90;;;;;;5036332;28;20194;-64
2023/04/28 08:34:11;;;;;;;4.50;3.17;;;16.40;99.90;;;;;;5034284;28;20189;-65
2023/04/28 08:36:37;;;;;;;3.88;3.28;;;16.50;99.90;;;;;;5034347;28;20186;-66
2023/04/28 08:39:07;;;;;;;4.15;3.33;;;16.60;99.90;;;;;;5035506;28;20197;-65
2023/04/28 08:41:38;;;;;;;5.22;3.70;;;16.70;99.90;;;;;;5032534;28;20194;-66
2023/04/28 08:44:11;;;;;;;3.83;3.28;;;16.70;99.90;;;;;;5029731;28;20210;-63
2023/04/28 08:46:42;;;;;;;4.20;3.55;;;16.80;99.90;;;;;;5035679;28;20188;-64
2023/04/28 08:49:16;;;;;;;5.07;3.42;;;16.90;99.90;;;;;;5029724;28;20170;-65
2023/04/28 08:51:49;;;;;;;4.90;3.47;;;17.00;99.90;;;;;;5026336;28;20229;-65
2023/04/28 08:54:18;;;;;;;4.97;3.42;;;17.00;99.90;;;;;;5032000;28;20193;-65
2023/04/28 08:56:50;;;;;;;5.10;3.20;;;17.00;99.90;;;;;;5035250;28;20198;-65
2023/04/28 08:59:19;;;;;;;4.28;3.22;;;17.10;99.90;;;;;;5026793;28;20174;-65
2023/04/28 09:01:48;;;;;;;5.68;3.53;;;17.10;99.90;;;;;;5035299;28;20178;-64
2023/04/28 09:04:16;;;;;;;5.47;3.70;;;17.10;99.90;;;;;;5023173;28;20301;-65
2023/04/28 09:06:42;;;;;;;3.30;3.00;;;17.10;99.90;;;;;;5028736;28;20178;-65
2023/04/28 09:09:20;;;;;;;4.55;3.22;;;17.10;99.90;;;;;;5034642;28;20205;-65
2023/04/28 09:11:58;;;;;;;4.50;3.55;;;17.10;99.90;;;;;;5021204;28;20203;-64
2023/04/28 09:14:25;;;;;;;4.40;3.33;;;17.00;99.90;;;;;;5033465;28;20518;-66
2023/04/28 09:16:51;;;;;;;5.28;3.65;;;17.00;99.90;;;;;;5034973;28;20186;-66
2023/04/28 09:19:20;;;;;;;5.15;3.55;;;17.00;99.90;;;;;;5034540;28;20192;-65
2023/04/28 09:21:50;;;;;;;5.15;3.50;;;17.00;99.90;;;;;;5037666;28;20235;-66
2023/04/28 09:24:26;;;;;;;5.18;3.70;;;17.00;99.90;;;;;;5034683;28;20213;-65
2023/04/28 09:26:51;;;;;;;4.22;3.30;;;17.00;99.90;;;;;;5025928;28;20188;-66
2023/04/28 09:29:17;;;;;;;5.90;3.80;;;17.00;99.90;;;;;;5032049;28;20174;-65
2023/04/28 09:31:45;;;;;;;4.43;3.28;;;17.10;99.90;;;;;;5029699;28;20225;-66
2023/04/28 09:34:14;;;;;;;5.30;3.53;;;17.10;99.90;;;;;;5034600;28;20234;-65
2023/04/28 09:36:40;;;;;;;3.90;3.30;;;17.20;99.90;;;;;;5032564;28;20232;-64
2023/04/28 09:39:05;;;;;;;4.43;3.30;;;17.40;99.90;;;;;;5034999;28;20209;-64
2023/04/28 09:41:36;;;;;;;5.60;3.15;;;17.50;99.90;;;;;;5034611;28;20178;-66
2023/04/28 09:44:14;;;;;;;3.67;3.20;;;17.60;99.90;;;;;;5032653;28;20205;-66
2023/04/28 09:46:43;;;;;;;3.95;3.25;;;17.70;99.90;;;;;;5035226;28;20177;-65
2023/04/28 09:49:10;;;;;;;4.60;3.15;;;17.80;99.90;;;;;;5034422;28;20174;-65
2023/04/28 09:51:35;;;;;;;4.22;3.10;;;17.80;99.90;;;;;;5030455;28;20194;-65
2023/04/28 09:54:02;;;;;;;4.50;3.45;;;17.80;99.90;;;;;;5034798;28;20182;-66
2023/04/28 09:56:38;;;;;;;3.30;3.00;;;17.80;99.90;;;;;;5034064;28;20208;-66
2023/04/28 09:59:03;;;;;;;3.67;3.03;;;17.80;99.90;;;;;;5032962;28;20182;-63
2023/04/28 10:01:37;;;;;;;4.18;3.17;;;17.80;99.90;;;;;;5034360;28;20178;-65
2023/04/28 10:04:05;;;;;;;4.25;3.05;;;17.70;99.90;;;;;;5034426;28;20207;-65
2023/04/28 10:06:38;;;;;;;4.20;3.35;;;17.70;99.90;;;;;;5032827;28;20201;-64
2023/04/28 10:09:04;;;;;;;3.15;2.78;;;17.70;99.90;;;;;;5034473;28;20197;-66
2023/04/28 10:11:33;;;;;;;3.75;3.03;;;17.70;99.90;;;;;;5024842;28;20213;-66
2023/04/28 10:14:01;;;;;;;3.83;2.97;;;17.70;99.90;;;;;;5027873;28;20210;-67
2023/04/28 10:16:30;;;;;;;4.25;3.03;;;17.60;99.90;;;;;;5019689;28;20212;-66
2023/04/28 10:18:56;;;;;;;3.63;2.75;;;17.70;99.90;;;;;;5032823;28;20182;-66
2023/04/28 10:21:23;;;;;;;4.20;3.05;;;17.80;99.90;;;;;;5032338;28;20244;-66
2023/04/28 10:24:13;;;;;;;3.15;2.85;;;17.80;99.90;;;;;;5033772;28;20227;-64
2023/04/28 10:27:00;;;;;;;3.10;2.80;;;17.90;99.90;;;;;;5015672;28;20198;-65
2023/04/28 10:29:28;;;;;;;4.20;3.28;;;18.10;99.90;;;;;;5015377;28;20210;-65
2023/04/28 10:32:25;;;;;;;3.58;3.10;;;18.10;99.90;;;;;;5029708;28;20182;-66
2023/04/28 10:34:51;;;;;;;3.95;3.45;;;18.20;99.90;;;;;;5031984;28;20188;-65
2023/04/28 10:37:18;;;;;;;4.13;3.17;;;18.30;99.90;;;;;;5036417;28;20212;-65
2023/04/28 10:40:22;;;;;;;3.60;2.92;;;18.30;99.90;;;;;;5036371;28;20183;-65
2023/04/28 10:42:57;;;;;;;4.15;2.80;;;18.20;99.90;;;;;;5034069;28;20216;-66
2023/04/28 10:45:51;;;;;;;3.08;2.78;;;18.20;99.90;;;;;;5036731;28;20201;-65
2023/04/28 10:48:20;;;;;;;3.58;3.08;;;18.20;99.90;;;;;;5022800;28;20313;-65
2023/04/28 10:51:05;;;;;;;4.40;3.50;;;18.10;99.90;;;;;;5036542;28;20192;-66
2023/04/28 10:53:43;;;;;;;4.10;2.95;;;18.10;99.90;;;;;;5036980;28;20206;-66
2023/04/28 10:56:18;;;;;;;4.25;3.30;;;18.20;99.90;;;;;;5032840;28;20194;-66
2023/04/28 10:58:45;;;;;;;4.40;2.70;;;18.20;99.90;;;;;;5022904;28;20178;-66
2023/04/28 11:01:30;;;;;;;4.18;2.88;;;18.40;99.90;;;;;;5035356;28;20217;-65
2023/04/28 11:04:11;;;;;;;5.05;3.55;;;18.60;99.90;;;;;;5018970;28;20201;-65
2023/04/28 11:07:11;;;;;;;4.00;3.30;;;18.70;99.90;;;;;;5036118;28;20277;-65
2023/04/28 11:09:37;;;;;;;3.38;2.80;;;18.90;99.90;;;;;;5030285;28;20179;-66
2023/04/28 11:12:09;;;;;;;2.50;2.30;;;19.00;99.90;;;;;;5030188;28;20182;-65
2023/04/28 11:14:39;;;;;;;3.33;2.72;;;19.00;99.90;;;;;;5031809;28;20205;-66
2023/04/28 11:17:12;;;;;;;3.95;2.90;;;19.00;99.90;;;;;;5032187;28;20236;-65
2023/04/28 11:19:45;;;;;;;4.93;3.10;;;19.00;99.90;;;;;;5036365;28;20269;-66
2023/04/28 11:22:19;;;;;;;3.42;3.13;;;19.00;99.90;;;;;;5031540;28;20187;-66
2023/04/28 11:24:58;;;;;;;4.25;3.25;;;19.10;99.90;;;;;;5026278;28;20240;-66
2023/04/28 11:27:25;;;;;;;4.10;2.97;;;19.10;99.90;;;;;;5031620;28;20193;-66
2023/04/28 11:29:51;;;;;;;3.72;3.00;;;19.20;99.90;;;;;;5035826;28;20227;-65
2023/04/28 11:32:26;;;;;;;3.92;3.05;;;19.30;99.90;;;;;;5032121;28;20174;-66
2023/04/28 11:34:54;;;;;;;3.70;3.25;;;19.40;99.90;;;;;;5034883;28;20259;-65
2023/04/28 11:37:22;;;;;;;3.25;2.55;;;19.60;99.90;;;;;;5036284;28;20385;-66
2023/04/28 11:39:50;;;;;;;2.85;2.58;;;19.80;99.90;;;;;;5033414;28;20193;-67
2023/04/28 11:42:18;;;;;;;3.10;2.47;;;20.00;99.90;;;;;;5020917;28;20174;-67
2023/04/28 11:44:52;;;;;;;2.70;2.05;;;20.20;99.90;;;;;;5032446;28;20195;-66
2023/04/28 11:47:29;;;;;;;2.20;2.00;;;20.40;99.90;;;;;;5032720;28;20194;-65
2023/04/28 11:49:57;;;;;;;2.20;2.00;;;20.50;99.90;;;;;;5017395;28;20159;-66
2023/04/28 11:52:24;;;;;;;2.50;2.10;;;20.60;99.90;;;;;;5034997;28;20495;-67
2023/04/28 11:54:54;;;;;;;2.55;2.35;;;20.70;99.90;;;;;;5034064;28;20233;-64
2023/04/28 11:57:22;;;;;;;2.30;2.10;;;20.80;99.90;;;;;;5016961;28;20445;-64
2023/04/28 11:59:48;;;;;;;2.42;2.20;;;20.80;99.90;;;;;;5027996;28;20213;-64
2023/04/28 12:02:15;;;;;;;2.65;2.20;;;20.90;99.90;;;;;;5036589;28;20204;-64
2023/04/28 12:04:42;;;;;;;3.58;2.15;;;20.90;99.90;;;;;;5034032;28;20296;-64
2023/04/28 12:07:12;;;;;;;2.05;1.85;;;20.90;99.90;;;;;;5042162;28;20223;-65
2023/04/28 12:09:50;;;;;;;2.30;2.10;;;21.00;99.90;;;;;;5033940;28;20174;-64
2023/04/28 12:12:32;;;;;;;2.15;1.95;;;21.20;99.90;;;;;;5035564;28;20170;-65
2023/04/28 12:14:58;;;;;;;2.45;2.00;;;21.40;99.90;;;;;;5036389;28;20177;-66
2023/04/28 12:17:38;;;;;;;2.15;1.83;;;21.70;99.90;;;;;;5034176;28;20358;-66
2023/04/28 12:20:11;;;;;;;1.85;1.75;;;21.90;99.90;;;;;;5033325;28;20194;-65
2023/04/28 12:22:45;;;;;;;2.25;1.67;;;22.20;99.90;;;;;;5035711;28;20202;-66
2023/04/28 12:25:18;;;;;;;2.22;1.95;;;22.50;99.90;;;;;;5035262;28;20201;-65
2023/04/28 12:28:06;;;;;;;2.33;1.95;;;22.70;99.90;;;;;;5035102;28;20173;-66
2023/04/28 12:30:34;;;;;;;1.88;1.60;;;23.00;99.90;;;;;;5032778;28;20170;-66
2023/04/28 12:33:03;;;;;;;1.80;1.60;;;23.20;99.90;;;;;;5034196;28;20179;-65
2023/04/28 12:35:32;;;;;;;1.92;1.83;;;23.40;99.90;;;;;;5030367;28;20198;-67
2023/04/28 12:38:00;;;;;;;2.35;1.65;;;23.60;99.90;;;;;;5034756;28;20228;-67
2023/04/28 12:40:25;;;;;;;2.22;1.67;;;23.80;99.90;;;;;;5029609;28;20221;-66
2023/04/28 12:42:51;;;;;;;1.95;1.80;;;23.90;99.90;;;;;;5032766;28;20221;-66
2023/04/28 12:45:17;;;;;;;1.95;1.80;;;24.10;99.90;;;;;;5034794;28;20205;-66
2023/04/28 12:47:43;;;;;;;2.03;1.80;;;24.20;99.90;;;;;;5034243;28;20181;-66
2023/04/28 12:50:10;;;;;;;1.70;1.60;;;24.40;99.90;;;;;;5024743;28;20268;-66
2023/04/28 12:52:36;;;;;;;1.48;1.38;;;24.50;99.90;;;;;;5032368;28;20281;-65
2023/04/28 12:55:02;;;;;;;1.52;1.42;;;24.70;99.90;;;;;;5032084;28;20290;-65